CheckWX is a tool to help pilots better visualize weather data.  It is not intended as a substitute for an official pre-flight weather briefing.

16:52:18 UTC

DTTZ METAR
Tozeur Nefta International Airport
Tozeur, Tunisia
Current

52 mins ago

DTTZ 241600Z 28007KT CAVOK 19/05 Q1022
Observed
Jan-24 @ 16:00 UTC
Wind
  • 280° at 7 KTS
Visibility
10,000+ meters
Flight Rules
VFR
Cloud Levels
  • Clear skies
Temperature
19°C / 66°F
Dewpoint
C / 41°F
Humidity
40%
Altimeter
30.18" Hg
Pressure
1021.92 hPa
Previous

2 hours ago

DTTZ 241500Z 26004KT 210V310 CAVOK 20/04 Q1022
Observed
Jan-24 @ 15:00 UTC
Wind
  • 260° at 4 KTS
Visibility
10,000+ meters
Flight Rules
VFR
Cloud Levels
  • Clear skies
Temperature
20°C / 68°F
Dewpoint
C / 39°F
Humidity
35%
Altimeter
30.18" Hg
Pressure
1021.92 hPa
Previous

3 hours ago

DTTZ 241400Z 25003KT 210V290 CAVOK 20/04 Q1022
Observed
Jan-24 @ 14:00 UTC
Wind
  • 250° at 3 KTS
Visibility
10,000+ meters
Flight Rules
VFR
Cloud Levels
  • Clear skies
Temperature
20°C / 68°F
Dewpoint
C / 39°F
Humidity
35%
Altimeter
30.18" Hg
Pressure
1021.92 hPa